< < Back
Terminal Aerodrome Forecast


Current Version              Previous Versions:   1  2  3  4  5  6  7  8  9  

Terminal Aerodrome Forecast

275
FTUS44 KHUN 312042 AAB
TAFHSV
TAF AMD
KHSV 312042Z 3121/0118 25005KT P6SM SCT050 BKN120
     FM010000 VRB03KT P6SM FEW050 SCT120
     FM011500 22005KT P6SM SCT050=



Latest METAR

660
SAUS80 KWBC 312100 RRE
MTRHSV
METAR KHSV 312153Z 29006KT 10SM FEW070 FEW150 BKN250 31/18 A2990 RMK AO2
SLP116 T03110178


USA.gov is the U.S. government's official web portal to all federal, state and local government web resources and services.